Time;durP1;ratioP1;P1;durP2;ratioP2;P2;SDS_P1;SDS_P2;PMS_P1;PMS_P2;Temp;Humidity;BMP_temperature;BMP_pressure;BME280_temperature;BME280_humidity;BME280_pressure;Samples;Min_cycle;Max_cycle;Signal;HPM_P1;HPM_P2
2022/01/15 00:00:14;;;;;;;164.60;31.08;;;;;;;;;;4985979;28;106442;-67
2022/01/15 00:02:40;;;;;;;112.13;28.35;;;;;;;;;;4986031;28;107923;-67
2022/01/15 00:05:07;;;;;;;131.40;29.33;;;;;;;;;;4984829;28;107621;-67
2022/01/15 00:07:34;;;;;;;168.85;30.27;;;;;;;;;;4981811;28;106735;-67
2022/01/15 00:10:00;;;;;;;182.43;30.45;;;;;;;;;;4983418;28;106456;-67
2022/01/15 00:12:28;;;;;;;137.15;31.27;;;;;;;;;;4982849;28;107396;-67
2022/01/15 00:14:55;;;;;;;142.90;28.83;;;;;;;;;;4975722;28;106148;-67
2022/01/15 00:17:43;;;;;;;181.38;28.67;;;;;;;;;;4980960;28;109563;-67
2022/01/15 00:20:08;;;;;;;123.47;28.38;;;;;;;;;;4974815;28;106591;-67
2022/01/15 00:22:34;;;;;;;166.45;31.50;;;;;;;;;;4983155;28;106027;-66
2022/01/15 00:25:00;;;;;;;171.05;29.27;;;;;;;;;;4989738;28;106413;-67
2022/01/15 00:27:27;;;;;;;131.15;25.95;;;;;;;;;;4981933;28;107181;-67
2022/01/15 00:29:53;;;;;;;125.40;25.55;;;;;;;;;;4954488;28;107484;-66
2022/01/15 00:32:20;;;;;;;136.02;27.05;;;;;;;;;;4968983;28;106490;-67
2022/01/15 00:34:46;;;;;;;129.75;26.80;;;;;;;;;;4969297;28;107469;-66
2022/01/15 00:37:12;;;;;;;133.45;27.10;;;;;;;;;;4979622;28;106543;-66
2022/01/15 00:39:39;;;;;;;189.43;26.23;;;;;;;;;;4986817;28;106123;-66
2022/01/15 00:42:08;;;;;;;156.65;26.63;;;;;;;;;;4984447;28;107092;-66
2022/01/15 00:44:36;;;;;;;112.25;25.13;;;;;;;;;;4986989;28;106515;-68
2022/01/15 00:47:03;;;;;;;155.90;28.63;;;;;;;;;;4992772;28;106972;-66
2022/01/15 00:49:29;;;;;;;148.20;27.27;;;;;;;;;;4984659;28;106420;-66
2022/01/15 00:51:56;;;;;;;138.57;25.27;;;;;;;;;;4987236;28;105556;-66
2022/01/15 00:54:22;;;;;;;132.25;25.35;;;;;;;;;;4986063;28;107903;-66
2022/01/15 00:56:48;;;;;;;130.63;25.00;;;;;;;;;;4985936;28;106193;-66
2022/01/15 00:59:17;;;;;;;107.65;25.75;;;;;;;;;;4985867;28;106264;-67
2022/01/15 01:01:44;;;;;;;185.15;28.58;;;;;;;;;;4968589;28;108041;-67
2022/01/15 01:04:10;;;;;;;138.70;27.52;;;;;;;;;;4982808;28;106492;-67
2022/01/15 01:06:37;;;;;;;144.10;27.35;;;;;;;;;;4988831;28;106785;-68
2022/01/15 01:09:03;;;;;;;151.68;25.38;;;;;;;;;;4990095;28;106449;-66
2022/01/15 01:11:42;;;;;;;153.20;24.63;;;;;;;;;;4970793;28;106222;-67
2022/01/15 01:22:52;;;;;;;113.10;25.17;;;;;;;;;;4986480;28;107715;-66
2022/01/15 01:25:05;;;;;;;199.98;26.17;;;;;;;;;;4981957;28;109571;-66
2022/01/15 01:27:44;;;;;;;112.53;23.50;;;;;;;;;;4983104;28;105446;-66
2022/01/15 01:30:18;;;;;;;186.45;25.80;;;;;;;;;;4987709;28;107546;-67
2022/01/15 01:32:50;;;;;;;136.80;22.38;;;;;;;;;;4984812;28;105857;-67
2022/01/15 01:38:12;;;;;;;158.25;22.50;;;;;;;;;;4974798;28;107834;-67
2022/01/15 01:40:43;;;;;;;116.22;20.60;;;;;;;;;;4986430;28;106020;-67
2022/01/15 01:43:40;;;;;;;111.68;19.63;;;;;;;;;;4973382;28;106941;-66
2022/01/15 01:46:44;;;;;;;152.25;24.15;;;;;;;;;;4970643;28;107871;-67
2022/01/15 01:48:56;;;;;;;91.05;19.73;;;;;;;;;;4983949;28;106350;-66
2022/01/15 01:51:34;;;;;;;89.10;19.58;;;;;;;;;;4983356;28;107247;-66
2022/01/15 01:54:02;;;;;;;108.72;22.40;;;;;;;;;;4985783;28;107753;-66
2022/01/15 01:56:28;;;;;;;143.48;20.60;;;;;;;;;;4982299;28;106906;-66
2022/01/15 01:58:55;;;;;;;99.93;19.95;;;;;;;;;;4980278;28;106458;-66
2022/01/15 02:01:21;;;;;;;113.65;21.15;;;;;;;;;;4990210;28;106545;-66
2022/01/15 02:03:49;;;;;;;104.93;17.85;;;;;;;;;;4989338;28;107452;-66
2022/01/15 02:06:15;;;;;;;80.63;17.80;;;;;;;;;;4989271;28;107326;-66
2022/01/15 02:08:42;;;;;;;87.18;18.20;;;;;;;;;;4985560;22;106633;-73
2022/01/15 02:11:08;;;;;;;91.60;17.05;;;;;;;;;;4971744;28;106717;-73
2022/01/15 02:13:37;;;;;;;76.55;17.48;;;;;;;;;;4968291;28;107029;-73
2022/01/15 02:16:04;;;;;;;79.40;16.25;;;;;;;;;;4973380;28;106294;-73
2022/01/15 02:18:30;;;;;;;65.55;15.57;;;;;;;;;;4969518;28;107254;-73
2022/01/15 02:23:44;;;;;;;77.10;16.35;;;;;;;;;;4970639;28;107814;-73
2022/01/15 02:26:13;;;;;;;65.82;15.52;;;;;;;;;;4969590;28;106418;-72
2022/01/15 02:28:43;;;;;;;66.28;15.18;;;;;;;;;;4970608;28;106727;-73
2022/01/15 02:31:14;;;;;;;58.78;15.15;;;;;;;;;;4963684;28;106590;-72
2022/01/15 02:33:42;;;;;;;61.60;14.73;;;;;;;;;;4959925;28;109668;-73
2022/01/15 02:36:12;;;;;;;64.20;15.57;;;;;;;;;;4970742;28;106561;-73
2022/01/15 02:38:40;;;;;;;60.58;15.75;;;;;;;;;;4970473;28;106264;-73
2022/01/15 02:41:06;;;;;;;60.88;15.48;;;;;;;;;;4970434;28;106319;-73
2022/01/15 02:43:34;;;;;;;66.55;15.80;;;;;;;;;;4954146;28;107257;-73
2022/01/15 02:48:48;;;;;;;85.43;17.95;;;;;;;;;;4970622;28;105581;-73
2022/01/15 02:51:15;;;;;;;82.25;17.30;;;;;;;;;;4970276;28;105937;-72
2022/01/15 02:53:42;;;;;;;83.22;16.88;;;;;;;;;;4947623;28;106339;-72
2022/01/15 02:56:09;;;;;;;90.63;18.40;;;;;;;;;;4966250;28;106086;-73
2022/01/15 02:58:35;;;;;;;99.25;17.52;;;;;;;;;;4966055;28;108164;-73
2022/01/15 03:01:02;;;;;;;87.07;15.43;;;;;;;;;;4952817;28;110561;-72
2022/01/15 03:03:29;;;;;;;97.78;15.88;;;;;;;;;;4966595;28;108494;-72
2022/01/15 03:05:55;;;;;;;86.72;16.58;;;;;;;;;;4969828;28;106273;-72
2022/01/15 03:08:21;;;;;;;100.53;17.17;;;;;;;;;;4968000;28;106223;-73
2022/01/15 03:10:48;;;;;;;95.45;16.63;;;;;;;;;;4963164;28;110627;-72
2022/01/15 03:13:15;;;;;;;94.82;16.45;;;;;;;;;;4969630;28;106401;-72
2022/01/15 03:15:42;;;;;;;108.68;18.20;;;;;;;;;;4968663;28;105985;-72
2022/01/15 03:18:08;;;;;;;90.45;15.27;;;;;;;;;;4969696;28;107725;-73
2022/01/15 03:20:35;;;;;;;81.28;14.20;;;;;;;;;;4965374;28;108518;-72
2022/01/15 03:23:01;;;;;;;107.15;15.88;;;;;;;;;;4964334;28;106400;-72
2022/01/15 03:25:28;;;;;;;85.03;15.10;;;;;;;;;;4970013;28;107243;-73
2022/01/15 03:27:54;;;;;;;81.63;15.23;;;;;;;;;;4968964;28;106285;-72
2022/01/15 03:30:21;;;;;;;89.30;15.23;;;;;;;;;;4944093;28;105905;-73
2022/01/15 03:32:47;;;;;;;83.70;15.48;;;;;;;;;;4969516;28;107962;-72
2022/01/15 03:35:15;;;;;;;118.00;16.52;;;;;;;;;;4970292;28;106052;-73
2022/01/15 03:37:42;;;;;;;85.22;14.30;;;;;;;;;;4970106;28;106934;-73
2022/01/15 03:40:10;;;;;;;93.38;15.38;;;;;;;;;;4970359;28;106369;-73
2022/01/15 03:42:36;;;;;;;87.30;14.60;;;;;;;;;;4970582;28;107112;-73
2022/01/15 03:45:03;;;;;;;112.47;14.88;;;;;;;;;;4970242;28;106798;-72
2022/01/15 03:47:29;;;;;;;96.10;14.65;;;;;;;;;;4965461;28;105822;-72
2022/01/15 03:49:56;;;;;;;68.25;13.50;;;;;;;;;;4968760;28;106990;-72
2022/01/15 03:52:22;;;;;;;61.67;12.23;;;;;;;;;;4959391;28;106947;-72
2022/01/15 03:54:49;;;;;;;64.22;12.60;;;;;;;;;;4969803;28;105930;-72
2022/01/15 03:57:15;;;;;;;52.00;12.25;;;;;;;;;;4969262;28;106161;-72
2022/01/15 03:59:42;;;;;;;52.05;11.43;;;;;;;;;;4964548;28;107330;-72
2022/01/15 04:02:08;;;;;;;51.45;11.43;;;;;;;;;;4969919;28;106085;-72
2022/01/15 04:04:35;;;;;;;59.17;12.38;;;;;;;;;;4960694;28;106048;-72
2022/01/15 04:07:02;;;;;;;76.93;13.25;;;;;;;;;;4956849;28;106521;-72
2022/01/15 04:09:28;;;;;;;67.47;13.60;;;;;;;;;;4963876;28;106226;-72
2022/01/15 04:11:55;;;;;;;81.13;14.93;;;;;;;;;;4964836;28;110284;-72
2022/01/15 04:14:21;;;;;;;88.05;14.88;;;;;;;;;;4968329;28;106527;-72
2022/01/15 04:16:47;;;;;;;80.20;15.57;;;;;;;;;;4968046;28;108745;-72
2022/01/15 04:19:14;;;;;;;72.20;14.88;;;;;;;;;;4967672;28;107443;-72
2022/01/15 04:21:40;;;;;;;68.93;13.20;;;;;;;;;;4969648;28;106119;-72
2022/01/15 04:24:07;;;;;;;52.13;12.07;;;;;;;;;;4969514;28;107831;-72
2022/01/15 04:26:33;;;;;;;54.92;11.95;;;;;;;;;;4965313;28;107886;-72
2022/01/15 04:29:02;;;;;;;52.40;12.70;;;;;;;;;;4969219;28;107229;-72
2022/01/15 04:31:36;;;;;;;59.90;12.73;;;;;;;;;;4967390;28;106077;-72
2022/01/15 04:34:02;;;;;;;68.05;13.77;;;;;;;;;;4952619;28;106085;-72
2022/01/15 04:36:29;;;;;;;64.75;14.35;;;;;;;;;;4967676;28;106411;-72
2022/01/15 04:38:55;;;;;;;70.07;14.50;;;;;;;;;;4951817;28;109162;-72
2022/01/15 04:41:21;;;;;;;78.60;14.07;;;;;;;;;;4966927;28;105694;-72
2022/01/15 04:43:48;;;;;;;56.20;11.68;;;;;;;;;;4964915;28;106596;-72
2022/01/15 04:46:14;;;;;;;43.67;10.80;;;;;;;;;;4949781;28;107033;-72
2022/01/15 04:48:41;;;;;;;48.00;11.77;;;;;;;;;;4971463;28;106728;-72
2022/01/15 04:51:07;;;;;;;46.20;11.02;;;;;;;;;;4968997;28;107373;-72
2022/01/15 04:53:34;;;;;;;40.70;10.02;;;;;;;;;;4968012;28;107994;-72
2022/01/15 04:56:00;;;;;;;42.03;10.52;;;;;;;;;;4969279;28;106808;-72
2022/01/15 04:58:27;;;;;;;50.53;11.85;;;;;;;;;;4968013;28;107195;-72
2022/01/15 05:00:54;;;;;;;37.13;9.75;;;;;;;;;;4950559;28;106261;-71
2022/01/15 05:03:20;;;;;;;45.38;11.23;;;;;;;;;;4967946;28;107523;-71
2022/01/15 05:05:47;;;;;;;38.97;10.45;;;;;;;;;;4945809;28;107333;-72
2022/01/15 05:08:13;;;;;;;49.60;11.18;;;;;;;;;;4967932;28;105714;-71
2022/01/15 05:10:46;;;;;;;43.70;12.15;;;;;;;;;;4953791;28;106849;-72
2022/01/15 05:13:14;;;;;;;48.63;11.20;;;;;;;;;;4963593;28;107501;-72
2022/01/15 05:15:44;;;;;;;43.35;11.43;;;;;;;;;;4949450;28;106768;-72
2022/01/15 05:18:10;;;;;;;45.05;12.98;;;;;;;;;;4957240;28;107055;-72
2022/01/15 05:20:41;;;;;;;42.83;12.60;;;;;;;;;;4969170;28;106272;-72
2022/01/15 05:23:07;;;;;;;52.22;13.00;;;;;;;;;;4968109;28;107060;-73
2022/01/15 05:25:34;;;;;;;66.10;13.88;;;;;;;;;;4966229;28;107588;-72
2022/01/15 05:28:00;;;;;;;61.67;14.43;;;;;;;;;;4968255;28;106211;-72
2022/01/15 05:30:30;;;;;;;81.28;15.73;;;;;;;;;;4966213;28;106549;-72
2022/01/15 05:32:56;;;;;;;71.85;16.98;;;;;;;;;;4971164;28;106836;-72
2022/01/15 05:35:26;;;;;;;62.45;14.80;;;;;;;;;;4967861;28;107183;-72
2022/01/15 05:37:52;;;;;;;;;;;;;;;;;;4967177;28;109231;-72
2022/01/15 05:40:18;;;;;;;88.50;14.18;;;;;;;;;;4966743;28;118954;-72
2022/01/15 05:42:46;;;;;;;98.50;16.92;;;;;;;;;;4966242;28;107514;-72
2022/01/15 05:45:13;;;;;;;77.32;16.25;;;;;;;;;;4942205;28;107433;-72
2022/01/15 05:47:39;;;;;;;92.25;17.63;;;;;;;;;;4946446;28;106341;-72
2022/01/15 05:50:06;;;;;;;94.43;18.92;;;;;;;;;;4967742;28;105883;-72
2022/01/15 05:52:34;;;;;;;86.18;18.17;;;;;;;;;;4975092;28;107297;-73
2022/01/15 05:55:02;;;;;;;95.03;19.67;;;;;;;;;;4971085;28;106107;-73
2022/01/15 05:57:28;;;;;;;123.30;19.92;;;;;;;;;;4966646;28;106293;-75
2022/01/15 05:59:58;;;;;;;120.93;21.27;;;;;;;;;;4966752;28;108872;-73
2022/01/15 06:02:25;;;;;;;134.57;22.55;;;;;;;;;;4955891;28;106870;-74
2022/01/15 06:04:51;;;;;;;134.43;23.10;;;;;;;;;;4974264;28;107523;-72
2022/01/15 06:07:20;;;;;;;119.13;22.20;;;;;;;;;;4955290;28;106263;-72
2022/01/15 06:09:47;;;;;;;101.55;21.30;;;;;;;;;;4973754;28;106807;-72
2022/01/15 06:12:28;;;;;;;116.65;21.80;;;;;;;;;;4959608;28;108273;-72
2022/01/15 06:14:54;;;;;;;93.60;22.63;;;;;;;;;;4960492;28;106485;-73
2022/01/15 06:17:42;;;;;;;98.95;21.17;;;;;;;;;;4974405;28;107059;-74
2022/01/15 06:20:14;;;;;;;95.88;23.52;;;;;;;;;;4973673;28;105799;-74
2022/01/15 06:22:42;;;;;;;86.75;23.05;;;;;;;;;;4974388;28;106276;-73
2022/01/15 06:25:15;;;;;;;84.47;22.83;;;;;;;;;;4950185;28;106913;-73
2022/01/15 06:27:43;;;;;;;87.55;22.52;;;;;;;;;;4962119;28;106266;-73
2022/01/15 06:30:10;;;;;;;104.47;23.52;;;;;;;;;;4972732;28;105662;-73
2022/01/15 06:32:40;;;;;;;123.35;23.65;;;;;;;;;;4974057;28;106789;-75
2022/01/15 06:35:09;;;;;;;110.03;21.85;;;;;;;;;;4939055;28;106333;-73
2022/01/15 06:37:36;;;;;;;113.35;22.52;;;;;;;;;;4967155;28;106388;-73
2022/01/15 06:40:07;;;;;;;78.50;20.63;;;;;;;;;;4955865;28;106065;-74
2022/01/15 06:42:37;;;;;;;122.55;22.50;;;;;;;;;;4971251;28;107387;-72
2022/01/15 06:45:04;;;;;;;100.85;22.35;;;;;;;;;;4971992;28;107563;-73
2022/01/15 06:47:31;;;;;;;138.02;23.02;;;;;;;;;;4968485;28;106752;-73
2022/01/15 06:50:04;;;;;;;127.38;21.80;;;;;;;;;;4974479;28;106305;-73
2022/01/15 06:52:33;;;;;;;112.28;21.23;;;;;;;;;;4953465;28;106942;-73
2022/01/15 06:55:01;;;;;;;151.38;22.55;;;;;;;;;;4976251;28;106325;-72
2022/01/15 06:57:28;;;;;;;113.63;22.10;;;;;;;;;;4955458;28;108356;-73
2022/01/15 06:59:55;;;;;;;136.52;22.75;;;;;;;;;;4961171;28;107763;-73
2022/01/15 07:02:21;;;;;;;99.63;19.65;;;;;;;;;;4977489;28;106487;-74
2022/01/15 07:04:47;;;;;;;137.70;20.42;;;;;;;;;;4977678;28;107535;-73
2022/01/15 07:07:15;;;;;;;134.52;18.25;;;;;;;;;;4962119;28;105929;-75
2022/01/15 07:09:41;;;;;;;144.85;19.38;;;;;;;;;;4977196;28;107197;-72
2022/01/15 07:12:08;;;;;;;137.80;19.92;;;;;;;;;;4976798;28;106767;-72
2022/01/15 07:14:34;;;;;;;172.05;20.50;;;;;;;;;;4982329;28;106586;-72
2022/01/15 07:17:01;;;;;;;196.90;20.70;;;;;;;;;;4975580;28;106804;-72
2022/01/15 07:19:28;;;;;;;133.82;19.75;;;;;;;;;;4959792;28;107377;-73
2022/01/15 07:21:54;;;;;;;146.95;18.23;;;;;;;;;;4973053;28;105928;-73
2022/01/15 07:24:21;;;;;;;144.18;18.67;;;;;;;;;;4968542;28;106435;-74
2022/01/15 07:26:47;;;;;;;204.32;21.55;;;;;;;;;;4971585;28;106833;-73
2022/01/15 07:29:15;;;;;;;224.07;23.35;;;;;;;;;;4969391;28;105989;-72
2022/01/15 07:31:46;;;;;;;226.07;22.83;;;;;;;;;;4970211;28;108473;-72
2022/01/15 07:34:13;;;;;;;131.25;19.85;;;;;;;;;;4959526;28;106577;-71
2022/01/15 07:36:40;;;;;;;276.67;26.67;;;;;;;;;;4950991;28;106990;-72
2022/01/15 07:39:07;;;;;;;129.02;21.83;;;;;;;;;;4969597;28;106138;-73
2022/01/15 07:41:34;;;;;;;238.70;25.75;;;;;;;;;;4972132;28;106070;-73
2022/01/15 07:44:02;;;;;;;197.77;19.80;;;;;;;;;;4953097;28;109539;-72
2022/01/15 07:46:28;;;;;;;200.85;21.83;;;;;;;;;;4969388;28;106011;-72
2022/01/15 07:48:55;;;;;;;256.77;22.10;;;;;;;;;;4971087;28;106926;-72
2022/01/15 07:51:21;;;;;;;203.98;21.00;;;;;;;;;;4971242;28;107726;-72
2022/01/15 07:53:47;;;;;;;212.65;22.52;;;;;;;;;;4972160;28;106147;-72
2022/01/15 07:56:14;;;;;;;298.95;25.67;;;;;;;;;;4969487;28;105742;-72
2022/01/15 07:58:40;;;;;;;248.15;26.00;;;;;;;;;;4948386;28;106323;-72
2022/01/15 08:01:07;;;;;;;295.63;25.73;;;;;;;;;;4960795;28;106225;-72
2022/01/15 08:03:33;;;;;;;137.60;19.65;;;;;;;;;;4974675;28;106429;-72
2022/01/15 08:06:00;;;;;;;257.35;26.23;;;;;;;;;;4970938;28;106521;-72
2022/01/15 08:08:26;;;;;;;186.77;21.50;;;;;;;;;;4972055;28;105961;-72
2022/01/15 08:10:53;;;;;;;221.25;23.63;;;;;;;;;;4971499;28;107072;-73
2022/01/15 08:13:19;;;;;;;167.57;22.13;;;;;;;;;;4972502;28;106158;-72
2022/01/15 08:15:45;;;;;;;172.55;22.42;;;;;;;;;;4970382;28;107931;-72
2022/01/15 08:18:12;;;;;;;188.43;22.75;;;;;;;;;;4976146;28;106995;-75
2022/01/15 08:20:42;;;;;;;233.83;24.17;;;;;;;;;;4957125;28;106449;-73
2022/01/15 08:23:08;;;;;;;268.85;23.88;;;;;;;;;;4972088;28;106558;-72
2022/01/15 08:25:35;;;;;;;264.73;23.95;;;;;;;;;;4975730;28;106506;-72
2022/01/15 08:28:01;;;;;;;293.63;25.30;;;;;;;;;;4951671;28;107171;-72
2022/01/15 08:30:28;;;;;;;194.45;24.58;;;;;;;;;;4957773;28;109745;-72
2022/01/15 08:32:54;;;;;;;309.40;28.58;;;;;;;;;;4953793;28;106534;-72
2022/01/15 08:35:21;;;;;;;275.15;25.92;;;;;;;;;;4967686;28;107696;-72
2022/01/15 08:37:48;;;;;;;238.10;24.73;;;;;;;;;;4965413;28;107502;-73
2022/01/15 08:40:15;;;;;;;229.23;25.55;;;;;;;;;;4972073;28;105691;-75
2022/01/15 08:42:42;;;;;;;243.52;26.90;;;;;;;;;;4977887;28;106564;-73
2022/01/15 08:45:09;;;;;;;350.23;30.48;;;;;;;;;;4951649;28;107471;-73
2022/01/15 08:47:36;;;;;;;275.35;27.52;;;;;;;;;;4960924;28;106213;-75
2022/01/15 08:50:03;;;;;;;316.35;27.67;;;;;;;;;;4970988;28;106343;-75
2022/01/15 08:52:29;;;;;;;319.85;28.48;;;;;;;;;;4966775;28;105900;-73
2022/01/15 08:54:57;;;;;;;317.75;29.70;;;;;;;;;;4971931;28;105736;-73
2022/01/15 08:57:23;;;;;;;291.48;26.63;;;;;;;;;;4947960;28;107848;-75
2022/01/15 08:59:50;;;;;;;234.52;27.85;;;;;;;;;;4967130;28;105994;-75
2022/01/15 09:02:16;;;;;;;297.13;28.73;;;;;;;;;;4966445;28;106678;-74
2022/01/15 09:04:43;;;;;;;220.15;28.50;;;;;;;;;;4970163;28;107348;-75
2022/01/15 09:07:10;;;;;;;173.10;24.35;;;;;;;;;;4975088;28;106073;-74
2022/01/15 09:09:36;;;;;;;386.65;34.40;;;;;;;;;;4977586;28;107137;-72
2022/01/15 09:12:03;;;;;;;346.63;29.17;;;;;;;;;;4956659;28;106298;-73
2022/01/15 09:14:29;;;;;;;188.48;28.20;;;;;;;;;;4974182;28;105767;-73
2022/01/15 09:16:56;;;;;;;185.77;27.90;;;;;;;;;;4972187;28;107898;-72
2022/01/15 09:19:22;;;;;;;249.50;27.10;;;;;;;;;;4976988;28;105651;-72
2022/01/15 09:21:49;;;;;;;264.80;26.90;;;;;;;;;;4982787;28;108432;-73
2022/01/15 09:24:16;;;;;;;272.73;24.98;;;;;;;;;;4977171;28;107192;-69
2022/01/15 09:27:01;;;;;;;172.27;25.30;;;;;;;;;;4976232;28;107460;-71
2022/01/15 09:32:13;;;;;;;154.63;23.58;;;;;;;;;;4980570;28;105503;-71
2022/01/15 09:34:40;;;;;;;280.42;28.88;;;;;;;;;;4976766;28;105904;-72
2022/01/15 09:37:07;;;;;;;185.43;24.13;;;;;;;;;;4982893;28;106421;-72
2022/01/15 09:39:34;;;;;;;322.98;25.20;;;;;;;;;;4991331;28;106079;-72
2022/01/15 09:42:01;;;;;;;336.42;27.50;;;;;;;;;;4960627;28;107327;-72
2022/01/15 09:44:27;;;;;;;321.38;27.10;;;;;;;;;;4972479;28;106734;-71
2022/01/15 09:46:54;;;;;;;205.80;23.17;;;;;;;;;;4967670;28;106175;-72
2022/01/15 09:49:23;;;;;;;303.17;26.83;;;;;;;;;;4973173;28;106739;-72
2022/01/15 09:51:49;;;;;;;271.73;26.30;;;;;;;;;;4977947;28;106279;-72
2022/01/15 09:54:16;;;;;;;219.20;24.48;;;;;;;;;;4979114;28;105829;-75
2022/01/15 09:56:43;;;;;;;276.90;29.25;;;;;;;;;;4983567;28;106538;-72
2022/01/15 09:59:10;;;;;;;218.43;25.83;;;;;;;;;;4981597;28;105559;-73
2022/01/15 10:01:36;;;;;;;236.52;27.83;;;;;;;;;;4977144;28;105891;-74
2022/01/15 10:04:03;;;;;;;339.23;30.80;;;;;;;;;;4980527;28;106814;-73
2022/01/15 10:06:29;;;;;;;217.75;26.17;;;;;;;;;;4977916;28;107433;-72
2022/01/15 10:09:06;;;;;;;224.30;25.85;;;;;;;;;;4970824;28;107074;-74
2022/01/15 10:11:44;;;;;;;154.27;23.25;;;;;;;;;;4955625;28;106988;-74
2022/01/15 10:14:30;;;;;;;264.65;28.35;;;;;;;;;;4985255;28;105733;-73
2022/01/15 10:16:57;;;;;;;197.48;23.13;;;;;;;;;;4985036;28;105571;-73
2022/01/15 10:19:25;;;;;;;200.68;23.83;;;;;;;;;;4976992;28;106062;-70
2022/01/15 10:22:10;;;;;;;184.83;26.33;;;;;;;;;;4941326;28;105749;-76
2022/01/15 10:24:38;;;;;;;202.30;22.92;;;;;;;;;;4957246;28;107872;-76
2022/01/15 10:27:20;;;;;;;245.13;25.55;;;;;;;;;;4972436;28;106641;-73
2022/01/15 10:29:49;;;;;;;230.50;24.17;;;;;;;;;;4974330;28;107185;-72
2022/01/15 10:32:16;;;;;;;147.73;22.27;;;;;;;;;;4970867;28;107279;-72
2022/01/15 10:34:43;;;;;;;148.35;22.50;;;;;;;;;;4952289;28;110468;-72
2022/01/15 10:37:12;;;;;;;146.88;21.92;;;;;;;;;;4978490;28;106034;-72
2022/01/15 10:39:39;;;;;;;156.13;20.15;;;;;;;;;;4966676;28;106361;-72
2022/01/15 10:42:13;;;;;;;164.10;21.45;;;;;;;;;;4967543;28;107087;-70
2022/01/15 10:44:41;;;;;;;189.60;23.52;;;;;;;;;;4967021;28;106998;-70
2022/01/15 10:47:08;;;;;;;174.38;23.08;;;;;;;;;;4971371;28;106868;-71
2022/01/15 10:49:35;;;;;;;207.05;24.50;;;;;;;;;;4960145;28;106863;-72
2022/01/15 10:52:17;;;;;;;250.43;24.08;;;;;;;;;;4967434;28;108686;-72
2022/01/15 10:54:54;;;;;;;171.48;22.83;;;;;;;;;;4970293;28;106091;-72
2022/01/15 10:57:22;;;;;;;146.45;21.88;;;;;;;;;;4965778;28;107360;-72
2022/01/15 11:00:05;;;;;;;254.93;28.08;;;;;;;;;;4972701;28;106379;-69
2022/01/15 11:02:31;;;;;;;269.13;29.98;;;;;;;;;;4970504;28;106846;-73
2022/01/15 11:04:58;;;;;;;195.90;32.92;;;;;;;;;;4952411;28;107150;-73
2022/01/15 11:07:25;;;;;;;220.68;37.03;;;;;;;;;;4969274;28;107465;-72
2022/01/15 11:09:53;;;;;;;254.05;41.42;;;;;;;;;;4970167;28;108109;-72
2022/01/15 11:12:24;;;;;;;204.85;30.13;;;;;;;;;;4968797;28;107335;-72
2022/01/15 11:14:51;;;;;;;180.95;22.98;;;;;;;;;;4950556;28;107443;-72
2022/01/15 11:17:18;;;;;;;181.50;24.88;;;;;;;;;;4964307;28;108959;-72
2022/01/15 11:19:45;;;;;;;206.32;24.02;;;;;;;;;;4969833;28;107591;-71
2022/01/15 11:22:18;;;;;;;168.57;23.23;;;;;;;;;;4974413;28;106223;-71
2022/01/15 11:24:44;;;;;;;208.38;25.80;;;;;;;;;;4970383;28;108722;-71
2022/01/15 11:27:11;;;;;;;212.50;26.48;;;;;;;;;;4968775;28;106614;-72
2022/01/15 11:29:41;;;;;;;211.65;25.00;;;;;;;;;;4968752;28;106962;-72
2022/01/15 11:32:09;;;;;;;208.95;27.58;;;;;;;;;;4969216;28;107831;-72
2022/01/15 11:34:36;;;;;;;183.50;24.83;;;;;;;;;;4970319;28;106573;-73
2022/01/15 11:37:18;;;;;;;171.13;24.58;;;;;;;;;;4971639;28;107376;-72
2022/01/15 11:39:45;;;;;;;161.02;25.77;;;;;;;;;;4964685;28;107379;-69
2022/01/15 11:42:24;;;;;;;150.45;23.95;;;;;;;;;;4969426;28;107729;-70
2022/01/15 11:44:50;;;;;;;186.20;24.65;;;;;;;;;;4970623;28;106310;-71
2022/01/15 11:47:21;;;;;;;167.00;25.08;;;;;;;;;;4970845;28;106801;-71
2022/01/15 11:49:49;;;;;;;204.32;27.60;;;;;;;;;;4965559;28;110008;-68
2022/01/15 11:52:18;;;;;;;201.27;24.92;;;;;;;;;;4960416;28;108313;-70
2022/01/15 11:54:50;;;;;;;196.10;28.83;;;;;;;;;;4959198;28;106352;-70
2022/01/15 11:57:21;;;;;;;220.27;28.48;;;;;;;;;;4961002;28;108869;-71
2022/01/15 11:59:48;;;;;;;222.27;29.60;;;;;;;;;;4947107;28;109281;-70
2022/01/15 12:02:28;;;;;;;189.55;27.55;;;;;;;;;;4968513;28;106294;-70
2022/01/15 12:05:15;;;;;;;216.32;30.27;;;;;;;;;;4970790;28;107100;-70
2022/01/15 12:08:04;;;;;;;211.23;28.80;;;;;;;;;;4967169;28;107544;-70
2022/01/15 12:10:45;;;;;;;162.30;25.98;;;;;;;;;;4965962;28;107551;-70
2022/01/15 12:13:12;;;;;;;171.60;26.60;;;;;;;;;;4960892;28;108119;-70
2022/01/15 12:15:39;;;;;;;291.55;30.20;;;;;;;;;;4967486;28;105507;-71
2022/01/15 12:18:15;;;;;;;265.92;30.70;;;;;;;;;;4970009;28;106847;-70
2022/01/15 12:20:42;;;;;;;140.32;25.92;;;;;;;;;;4951134;28;107094;-70
2022/01/15 12:23:17;;;;;;;168.40;26.17;;;;;;;;;;4969302;28;107018;-71
2022/01/15 12:25:44;;;;;;;241.02;27.30;;;;;;;;;;4969237;28;105838;-70
2022/01/15 12:28:14;;;;;;;172.40;26.30;;;;;;;;;;4964860;28;108870;-70
2022/01/15 12:30:46;;;;;;;138.65;24.75;;;;;;;;;;4966562;28;106059;-69
2022/01/15 12:33:14;;;;;;;174.98;26.20;;;;;;;;;;4967515;28;106319;-70
2022/01/15 12:35:56;;;;;;;184.35;27.42;;;;;;;;;;4968720;28;107272;-73
2022/01/15 12:38:25;;;;;;;117.50;24.83;;;;;;;;;;4968362;28;106734;-70
2022/01/15 12:40:53;;;;;;;197.50;26.80;;;;;;;;;;4956877;28;106986;-69
2022/01/15 12:43:25;;;;;;;131.15;23.60;;;;;;;;;;4966065;28;107536;-69
2022/01/15 12:45:53;;;;;;;159.52;25.98;;;;;;;;;;4966925;28;106679;-69
2022/01/15 12:48:21;;;;;;;228.93;26.20;;;;;;;;;;4967641;28;107389;-69
2022/01/15 12:50:56;;;;;;;240.00;26.38;;;;;;;;;;4970711;28;106110;-69
2022/01/15 12:53:27;;;;;;;186.82;27.38;;;;;;;;;;4968382;28;107816;-69
2022/01/15 12:55:54;;;;;;;213.13;26.15;;;;;;;;;;4969651;28;108492;-69
2022/01/15 12:58:22;;;;;;;149.68;27.38;;;;;;;;;;4966719;28;106869;-69
2022/01/15 13:00:49;;;;;;;155.25;25.70;;;;;;;;;;4962028;28;107430;-70
2022/01/15 13:03:20;;;;;;;150.32;24.52;;;;;;;;;;4968674;28;106908;-70
2022/01/15 13:05:52;;;;;;;220.00;28.92;;;;;;;;;;4975444;28;107189;-70
2022/01/15 13:08:22;;;;;;;123.65;23.65;;;;;;;;;;4952235;28;107076;-70
2022/01/15 13:11:18;;;;;;;112.35;23.58;;;;;;;;;;4972226;28;105903;-69
2022/01/15 13:13:38;;;;;;;109.97;23.98;;;;;;;;;;4971101;28;106286;-70
2022/01/15 13:16:18;;;;;;;78.28;21.80;;;;;;;;;;4959773;28;107145;-70
2022/01/15 13:18:47;;;;;;;92.38;21.70;;;;;;;;;;4961999;28;107197;-69
2022/01/15 13:21:17;;;;;;;64.32;20.02;;;;;;;;;;4962669;28;107931;-71
2022/01/15 13:23:55;;;;;;;67.55;20.88;;;;;;;;;;4968874;28;106019;-70
2022/01/15 13:26:30;;;;;;;75.50;22.95;;;;;;;;;;4967421;28;107009;-70
2022/01/15 13:29:04;;;;;;;79.18;22.48;;;;;;;;;;4950252;28;107799;-70
2022/01/15 13:31:33;;;;;;;70.22;21.85;;;;;;;;;;4962319;28;106320;-70
2022/01/15 13:34:06;;;;;;;67.40;21.25;;;;;;;;;;4968485;28;107028;-69
2022/01/15 13:36:33;;;;;;;59.20;19.50;;;;;;;;;;4969214;28;107704;-71
2022/01/15 13:38:59;;;;;;;56.30;18.98;;;;;;;;;;4968661;28;107108;-70
2022/01/15 13:41:29;;;;;;;52.03;17.50;;;;;;;;;;4967422;28;108006;-71
2022/01/15 13:43:56;;;;;;;51.55;17.15;;;;;;;;;;4965229;28;107867;-69
2022/01/15 13:46:34;;;;;;;50.72;17.55;;;;;;;;;;4966274;28;107388;-71
2022/01/15 13:49:10;;;;;;;54.10;18.00;;;;;;;;;;4966253;28;107773;-71
2022/01/15 13:54:56;;;;;;;53.38;16.42;;;;;;;;;;4968944;28;107946;-70
2022/01/15 13:57:26;;;;;;;44.38;16.23;;;;;;;;;;4952933;28;109882;-70
2022/01/15 13:59:56;;;;;;;51.42;17.17;;;;;;;;;;4974648;28;106851;-69
2022/01/15 14:02:27;;;;;;;48.35;16.77;;;;;;;;;;4965076;28;106363;-73
2022/01/15 14:05:07;;;;;;;50.22;16.98;;;;;;;;;;4952439;28;107429;-70
2022/01/15 14:07:37;;;;;;;52.38;17.83;;;;;;;;;;4970979;28;108252;-70
2022/01/15 14:10:11;;;;;;;47.63;17.13;;;;;;;;;;4967633;28;107549;-72
2022/01/15 14:12:38;;;;;;;43.60;16.40;;;;;;;;;;4950949;28;105993;-70
2022/01/15 14:15:13;;;;;;;49.38;17.88;;;;;;;;;;4969962;28;107986;-70
2022/01/15 14:17:43;;;;;;;44.63;16.25;;;;;;;;;;4966514;28;107358;-70
2022/01/15 14:22:43;;;;;;;48.92;17.40;;;;;;;;;;4970036;28;108116;-70
2022/01/15 14:25:10;;;;;;;56.28;18.02;;;;;;;;;;4969724;28;106157;-69
2022/01/15 14:27:37;;;;;;;52.65;17.48;;;;;;;;;;4970160;28;107061;-72
2022/01/15 14:30:04;;;;;;;53.80;18.60;;;;;;;;;;4966514;28;106800;-72